Time,TemperatureF,DewpointF,PressureIn,WindDirection,WindDirectionDegrees,WindSpeedMPH,WindSpeedGustMPH,Humidity,HourlyPrecipIn,Conditions,Clouds,dailyrainin,SoftwareType,DateUTC
2013-06-24 00:02:00,69.0,68.0,-100.00,North,-999,0.0,-999.0,96,0.00,,,1.46,,2013-06-24 04:02:00,
2013-06-24 00:12:00,69.0,68.0,-100.00,North,-999,0.0,-999.0,96,0.00,,,1.46,,2013-06-24 04:12:00,
2013-06-24 00:22:00,69.0,68.0,-100.00,North,-999,0.0,-999.0,96,0.00,,,1.46,,2013-06-24 04:22:00,
2013-06-24 00:33:00,69.0,68.0,-100.00,North,-999,0.0,-999.0,96,0.00,,,1.46,,2013-06-24 04:33:00,
2013-06-24 00:43:00,69.0,68.0,-100.00,North,-999,0.0,-999.0,96,0.00,,,1.46,,2013-06-24 04:43:00,
2013-06-24 00:45:00,68.0,67.0,-100.00,North,-999,0.0,-999.0,96,0.00,,,1.46,,2013-06-24 04:45:00,
2013-06-24 01:02:00,68.0,67.0,-100.00,North,-999,0.0,-999.0,96,0.00,,,1.46,,2013-06-24 05:02:00,
2013-06-24 01:12:00,68.0,67.0,-100.00,North,-999,0.0,-999.0,96,0.00,,,1.46,,2013-06-24 05:12:00,
2013-06-24 01:22:00,68.0,67.0,-100.00,North,-999,0.0,-999.0,96,0.00,,,1.46,,2013-06-24 05:22:00,
2013-06-24 01:37:00,68.0,67.0,-100.00,North,-999,0.0,-999.0,96,0.00,,,1.46,,2013-06-24 05:37:00,
2013-06-24 02:45:00,67.0,66.0,-100.00,North,1,0.0,-999.0,97,-99.99,,,1.46,,2013-06-24 06:45:00,
2013-06-24 03:07:00,67.0,66.0,-100.00,North,1,0.0,-999.0,97,-99.99,,,1.46,,2013-06-24 07:07:00,
2013-06-24 03:16:00,67.0,66.0,-100.00,North,1,0.0,-999.0,97,-99.99,,,1.46,,2013-06-24 07:16:00,
2013-06-24 03:31:00,67.0,66.0,-100.00,North,1,0.0,-999.0,97,-99.99,,,1.46,,2013-06-24 07:31:00,
2013-06-24 03:37:00,67.0,66.0,-100.00,North,1,0.0,-999.0,97,-99.99,,,1.46,,2013-06-24 07:37:00,
2013-06-24 03:45:00,67.0,66.0,-100.00,North,-999,-999.0,-999.0,97,0.00,,,1.46,,2013-06-24 07:45:00,
2013-06-24 04:05:00,67.0,66.0,-100.00,North,-999,-999.0,-999.0,97,0.00,,,1.46,,2013-06-24 08:05:00,
2013-06-24 04:15:00,67.0,66.0,-100.00,North,-999,-999.0,-999.0,97,0.00,,,1.46,,2013-06-24 08:15:00,
2013-06-24 04:27:00,67.0,66.0,-100.00,North,-999,-999.0,-999.0,97,0.00,,,1.46,,2013-06-24 08:27:00,
2013-06-24 04:36:00,67.0,66.0,-100.00,North,-999,-999.0,-999.0,97,0.00,,,1.46,,2013-06-24 08:36:00,
2013-06-24 05:08:00,66.0,65.0,-100.00,North,1,0.0,-999.0,97,0.00,,,1.46,,2013-06-24 09:08:00,
2013-06-24 05:16:00,66.0,65.0,-100.00,North,1,0.0,-999.0,97,0.00,,,1.46,,2013-06-24 09:16:00,
2013-06-24 05:27:00,66.0,65.0,-100.00,North,1,0.0,-999.0,97,0.00,,,1.46,,2013-06-24 09:27:00,
2013-06-24 05:38:00,66.0,65.0,-100.00,North,1,0.0,-999.0,97,0.00,,,1.46,,2013-06-24 09:38:00,
2013-06-24 05:45:00,67.0,66.0,-100.00,North,-999,-999.0,-999.0,97,0.00,,,1.43,,2013-06-24 09:45:00,
2013-06-24 06:05:00,67.0,66.0,-100.00,North,-999,-999.0,-999.0,97,0.00,,,1.43,,2013-06-24 10:05:00,
2013-06-24 06:15:00,67.0,66.0,-100.00,North,-999,-999.0,-999.0,97,0.00,,,1.43,,2013-06-24 10:15:00,
2013-06-24 06:38:00,67.0,66.0,-100.00,North,-999,-999.0,-999.0,97,0.00,,,1.43,,2013-06-24 10:38:00,
2013-06-24 06:45:00,69.0,68.0,-100.00,North,-999,0.0,-999.0,97,0.00,,,1.41,,2013-06-24 10:45:00,
2013-06-24 07:17:00,69.0,68.0,-100.00,North,-999,0.0,-999.0,97,0.00,,,1.41,,2013-06-24 11:17:00,
2013-06-24 07:34:00,69.0,68.0,-100.00,North,-999,0.0,-999.0,97,0.00,,,1.41,,2013-06-24 11:34:00,
2013-06-24 07:45:00,72.0,68.0,-100.00,North,-999,0.0,-999.0,87,0.01,,,1.42,,2013-06-24 11:45:00,
2013-06-24 08:07:00,72.0,68.0,-100.00,North,-999,0.0,-999.0,87,0.01,,,1.42,,2013-06-24 12:07:00,
2013-06-24 08:36:00,72.0,68.0,-100.00,North,-999,0.0,-999.0,87,0.01,,,1.42,,2013-06-24 12:36:00,
2013-06-24 09:45:00,78.0,68.0,-100.00,North,-999,-999.0,-999.0,72,-99.99,,,1.33,,2013-06-24 13:45:00,
2013-06-24 10:16:00,78.0,68.0,-100.00,North,-999,-999.0,-999.0,72,-99.99,,,1.33,,2013-06-24 14:16:00,
2013-06-24 10:25:00,78.0,68.0,-100.00,North,-999,-999.0,-999.0,72,-99.99,,,1.33,,2013-06-24 14:25:00,
2013-06-24 10:38:00,78.0,68.0,-100.00,North,-999,-999.0,-999.0,72,-99.99,,,1.33,,2013-06-24 14:38:00,
2013-06-24 10:45:00,81.0,67.0,-100.00,North,-999,0.0,-999.0,63,0.00,,,-99.99,,2013-06-24 14:45:00,
2013-06-24 11:06:00,81.0,67.0,-100.00,North,-999,0.0,-999.0,63,0.00,,,-99.99,,2013-06-24 15:06:00,
2013-06-24 11:15:00,81.0,67.0,-100.00,North,-999,0.0,-999.0,63,0.00,,,-99.99,,2013-06-24 15:15:00,
2013-06-24 11:27:00,81.0,67.0,-100.00,North,-999,0.0,-999.0,63,0.00,,,-99.99,,2013-06-24 15:27:00,
2013-06-24 11:36:00,81.0,67.0,-100.00,North,-999,0.0,-999.0,63,0.00,,,-99.99,,2013-06-24 15:36:00,
2013-06-24 12:15:00,83.0,65.0,-100.00,North,-999,-999.0,-999.0,55,0.00,,,-99.99,,2013-06-24 16:15:00,
2013-06-24 12:24:00,83.0,65.0,-100.00,North,-999,-999.0,-999.0,55,0.00,,,-99.99,,2013-06-24 16:24:00,
2013-06-24 12:44:00,83.0,65.0,-100.00,North,-999,-999.0,-999.0,55,0.00,,,-99.99,,2013-06-24 16:44:00,
2013-06-24 13:45:00,91.0,65.0,-100.00,North,-999,0.0,-999.0,42,-99.99,,,1.32,,2013-06-24 17:45:00,
2013-06-24 14:15:00,91.0,65.0,-100.00,North,-999,0.0,-999.0,42,-99.99,,,1.32,,2013-06-24 18:15:00,
2013-06-24 14:26:00,91.0,65.0,-100.00,North,-999,0.0,-999.0,42,-99.99,,,1.32,,2013-06-24 18:26:00,
2013-06-24 14:36:00,91.0,65.0,-100.00,North,-999,0.0,-999.0,42,-99.99,,,1.32,,2013-06-24 18:36:00,
2013-06-24 16:06:00,94.0,65.0,-100.00,North,-999,-999.0,-999.0,39,-99.99,,,1.32,,2013-06-24 20:06:00,
2013-06-24 16:12:00,94.0,65.0,-100.00,North,-999,-999.0,-999.0,39,-99.99,,,1.32,,2013-06-24 20:12:00,
2013-06-24 16:24:00,94.0,65.0,-100.00,North,-999,-999.0,-999.0,39,-99.99,,,1.32,,2013-06-24 20:24:00,
2013-06-24 17:45:00,69.0,-99.9,-100.00,North,1,0.0,-999.0,92,-99.99,,,1.15,,2013-06-24 21:45:00,
2013-06-24 18:45:00,72.0,69.0,-100.00,North,-999,0.0,-999.0,91,0.05,,,1.20,,2013-06-24 22:45:00,
2013-06-24 19:06:00,72.0,69.0,-100.00,North,-999,0.0,-999.0,91,0.05,,,1.20,,2013-06-24 23:06:00,
2013-06-24 19:14:00,72.0,69.0,-100.00,North,-999,0.0,-999.0,91,0.05,,,1.20,,2013-06-24 23:14:00,
2013-06-24 19:27:00,72.0,69.0,-100.00,North,-999,0.0,-999.0,91,0.05,,,1.20,,2013-06-24 23:27:00,
2013-06-24 19:45:00,71.0,68.0,-100.00,North,-999,0.0,-999.0,91,0.00,,,0.77,,2013-06-24 23:45:00,
2013-06-24 20:06:00,71.0,68.0,-100.00,North,-999,0.0,-999.0,91,0.00,,,0.77,,2013-06-25 00:06:00,
2013-06-24 20:14:00,71.0,68.0,-100.00,North,-999,0.0,-999.0,91,0.00,,,0.77,,2013-06-25 00:14:00,
2013-06-24 20:35:00,71.0,68.0,-100.00,North,-999,0.0,-999.0,91,0.00,,,0.77,,2013-06-25 00:35:00,
2013-06-24 20:45:00,71.0,69.0,-100.00,North,-999,0.0,-999.0,94,0.01,,,-99.99,,2013-06-25 00:45:00,
2013-06-24 21:18:00,71.0,69.0,-100.00,North,-999,0.0,-999.0,94,0.01,,,-99.99,,2013-06-25 01:18:00,
2013-06-24 21:24:00,71.0,69.0,-100.00,North,-999,0.0,-999.0,94,0.01,,,-99.99,,2013-06-25 01:24:00,
2013-06-24 21:37:00,71.0,69.0,-100.00,North,-999,0.0,-999.0,94,0.01,,,-99.99,,2013-06-25 01:37:00,
2013-06-24 22:16:00,71.0,69.0,-100.00,North,-999,-999.0,-999.0,94,0.00,,,0.24,,2013-06-25 02:16:00,
2013-06-24 22:25:00,71.0,69.0,-100.00,North,-999,-999.0,-999.0,94,0.00,,,0.24,,2013-06-25 02:25:00,
2013-06-24 22:37:00,71.0,69.0,-100.00,North,-999,-999.0,-999.0,94,0.00,,,0.24,,2013-06-25 02:37:00,